Login
Access
Login with your mtb-forum.it nickname and password.


You do not have an account? Sign up here for free

Logos

Last training unit 24/08/2013
0
Followers
901 Km
itineraries
10 488 m
of total vertical gain
33
hours of riding
26.02 Km/h
average speed
142
average HR


24/08/2013 Show to everybody Allenamento 24-08-13 alle 08:22 19.2 Km 213 m 00:46:58 24.53 Km\h Dynatek
22/08/2013 Show to everybody Allenamento 22-08-13 alle 06:56 19.54 Km 940 m 01:18:27 14.94 Km\h Dynatek
22/08/2013 Show to everybody Allenamento 22-08-13 alle 08:38 15.83 Km 31 m 00:27:07 35.03 Km\h Dynatek
20/08/2013 Show to everybody Allenamento 4 passi leggero 51.09 Km 2067 m 02:35:09 19.76 Km\h Dynatek
19/08/2013 Show to everybody Allenamento 19-08-13 alle 09:09 29.16 Km 1293 m 01:47:24 16.29 Km\h Dynatek
18/08/2013 Show to everybody Allenamento 18-08-13 alle 13:22 12.85 Km 192 m 00:26:11 29.45 Km\h Dynatek
17/08/2013 Show to everybody Allenamento 17-08-13 alle 09:24 25.22 Km 37 m 01:05:15 23.19 Km\h Dynatek
16/08/2013 Show to everybody Allenamento 16-08-13 alle 17:13 13.78 Km 0 m 00:31:31 26.24 Km\h Dynatek
16/08/2013 Show to everybody Allenamento 16-08-13 alle 16:46 3.93 Km 0 m 00:09:44 24.23 Km\h Dynatek
16/08/2013 Show to everybody Allenamento 16-08-13 alle 16:18 10.49 Km 0 m 00:21:56 28.69 Km\h Dynatek
16/08/2013 Show to everybody Allenamento 16-08-13 alle 16:57 5.99 Km 4 m 00:14:08 25.43 Km\h Dynatek
14/08/2013 Show to everybody Allenamento 14-08-13 alle 08:01 1.5 Km 11 m 00:04:00 22.44 Km\h Dynatek
14/08/2013 Show to everybody Allenamento 14-08-13 alle 07:46 0.98 Km 0 m 00:04:18 13.65 Km\h Dynatek
14/08/2013 Show to everybody Allenamento 14-08-13 alle 07:52 2.99 Km 0 m 00:06:08 29.26 Km\h Dynatek
14/08/2013 Show to everybody Allenamento 14-08-13 alle 07:23 9.98 Km 22 m 00:20:16 29.55 Km\h Dynatek
14/08/2013 Show to everybody Allenamento 14-08-13 alle 08:09 3.54 Km 6 m 00:09:55 21.43 Km\h Dynatek
13/08/2013 Show to everybody Allenamento 13-08-13 alle 06:48 76.68 Km 571 m 02:23:36 32.04 Km\h Dynatek
11/08/2013 Show to everybody Allenamento 11-08-13 alle 07:32 50.46 Km 148 m 01:13:57 40.94 Km\h Dynatek
09/08/2013 Show to everybody Allenamento 09-08-13 alle 07:26 55.91 Km 39 m 01:24:08 39.87 Km\h Dynatek
07/08/2013 Show to everybody Allenamento 07-08-13 alle 05:40 44.81 Km 36 m 01:46:49 25.17 Km\h Dynatek
06/08/2013 Show to everybody Allenamento 06-08-13 alle 15:54 73.83 Km 495 m 02:08:02 34.6 Km\h Dynatek
04/08/2013 Show to everybody Allenamento 04-08-13 alle 15:47 0.03 Km 0 m 00:01:04 1.88 Km\h Dynatek
21/07/2013 Show to everybody Allenamento 21-07-13 alle 13:37 56.5 Km 27 m 01:29:47 37.76 Km\h Dynatek
18/07/2013 Show to everybody Allenamento 18-07-13 alle 06:05 74.49 Km 808 m 02:30:26 29.71 Km\h Dynatek
12/07/2013 Show to everybody Allenamento 12-07-13 alle 07:37 54.2 Km 1661 m 02:46:39 19.51 Km\h Dynatek
11/07/2013 Show to everybody Allenamento 11-07-13 alle 12:30 49.19 Km 1585 m 02:22:32 20.71 Km\h Dynatek
07/07/2013 Show to everybody Allenamento 07-07-13 alle 12:33 19.29 Km 250 m 00:46:02 25.14 Km\h Dynatek
06/07/2013 Show to everybody Allenamento 06-07-13 alle 15:15 22.35 Km 1 m 00:48:43 27.52 Km\h Dynatek
05/07/2013 Show to everybody Allenamento 05-07-13 alle 14:04 33.46 Km 20 m 01:07:42 29.65 Km\h Dynatek
04/07/2013 Show to everybody Allenamento 04-07-13 alle 16:11 42.56 Km 16 m 01:09:26 36.78 Km\h Dynatek
27/06/2013 Show to everybody Allenamento 27-06-13 alle 09:00 21.22 Km 15 m 00:59:50 21.28 Km\h Dynatek

Show previous years trainings
This user's bikes.
Dynatek 29 830.43 Km 7481 m 29:33:34 26.62 Km/h

13 points
Kilometers
0
Vertical gain
0
Rank:419

Watch ranking »

 

Bike name

Delete this bike?

Now you follow this users and you can compare your trainings

If you stop following this users you will not be able to compare your trainings with his


bdc-forum.it | 2012-2019 Training Camp v.1.0.15